Time;durP1;ratioP1;P1;durP2;ratioP2;P2;SDS_P1;SDS_P2;PMS_P1;PMS_P2;Temp;Humidity;BMP_temperature;BMP_pressure;BME280_temperature;BME280_humidity;BME280_pressure;Samples;Min_cycle;Max_cycle;Signal;HPM_P1;HPM_P2
2021/04/25 00:00:09;;;;;;;;;;;;;;;19.95;43.99;101351.09;5096394;28;774;-60
2021/04/25 00:02:34;;;;;;;;;;;;;;;20.29;43.48;101342.09;5096005;28;950;-60
2021/04/25 00:04:59;;;;;;;;;;;;;;;20.09;43.79;101340.25;5096373;28;882;-61
2021/04/25 00:07:25;;;;;;;;;;;;;;;20.03;43.87;101333.94;5096511;28;783;-59
2021/04/25 00:09:50;;;;;;;;;;;;;;;20.22;43.51;101341.59;5078327;28;605;-59
2021/04/25 00:12:16;;;;;;;;;;;;;;;20.17;43.69;101340.50;5087011;28;1126;-53
2021/04/25 00:14:41;;;;;;;;;;;;;;;19.92;44.09;101341.47;5075926;28;1310;-52
2021/04/25 00:17:07;;;;;;;;;;;;;;;20.02;44.08;101339.75;5090984;28;1898;-59
2021/04/25 00:19:32;;;;;;;;;;;;;;;20.35;43.07;101338.19;5116185;28;791;-54
2021/04/25 00:21:57;;;;;;;;;;;;;;;20.27;43.40;101336.03;5118234;28;826;-60
2021/04/25 00:24:23;;;;;;;;;;;;;;;20.34;43.29;101342.06;5120517;28;850;-54
2021/04/25 00:26:48;;;;;;;;;;;;;;;20.36;43.26;101339.84;5120632;28;782;-54
2021/04/25 00:29:14;;;;;;;;;;;;;;;20.12;43.44;101340.53;5120394;28;778;-59
2021/04/25 00:31:39;;;;;;;;;;;;;;;20.00;43.82;101342.78;5120182;28;1016;-53
2021/04/25 00:34:05;;;;;;;;;;;;;;;20.29;43.27;101342.09;5120074;28;806;-60
2021/04/25 00:36:30;;;;;;;;;;;;;;;19.91;44.01;101344.47;5120485;28;1909;-59
2021/04/25 00:38:55;;;;;;;;;;;;;;;20.01;44.09;101344.44;5120411;28;759;-55
2021/04/25 00:41:21;;;;;;;;;;;;;;;20.19;43.27;101334.69;5120365;28;839;-53
2021/04/25 00:43:46;;;;;;;;;;;;;;;20.22;43.32;101330.56;5120078;28;727;-58
2021/04/25 00:46:12;;;;;;;;;;;;;;;20.46;42.75;101334.25;5113851;28;1581;-59
2021/04/25 00:48:37;;;;;;;;;;;;;;;20.46;42.92;101322.38;5099089;28;1014;-60
2021/04/25 00:51:03;;;;;;;;;;;;;;;20.25;43.25;101322.50;5081629;28;1348;-53
2021/04/25 00:53:29;;;;;;;;;;;;;;;20.40;42.86;101324.34;5099573;28;747;-54
2021/04/25 00:55:54;;;;;;;;;;;;;;;20.16;43.66;101326.97;5081229;28;787;-54
2021/04/25 00:58:19;;;;;;;;;;;;;;;20.00;43.97;101337.28;5099346;28;1975;-54
2021/04/25 01:00:45;;;;;;;;;;;;;;;20.34;43.21;101319.97;5081762;28;811;-55
2021/04/25 01:03:10;;;;;;;;;;;;;;;20.14;43.65;101320.91;5098881;28;962;-54
2021/04/25 01:05:36;;;;;;;;;;;;;;;20.15;43.55;101317.88;5099454;28;803;-57
2021/04/25 01:08:01;;;;;;;;;;;;;;;20.40;42.87;101321.59;5099216;28;822;-56
2021/04/25 01:10:28;;;;;;;;;;;;;;;20.26;43.31;101313.13;5099256;28;743;-60
2021/04/25 01:12:54;;;;;;;;;;;;;;;20.18;43.43;101310.94;5085030;28;1190;-58
2021/04/25 01:15:22;;;;;;;;;;;;;;;20.22;43.19;101301.00;5078789;28;1067;-55
2021/04/25 01:17:47;;;;;;;;;;;;;;;20.12;43.32;101310.16;5073980;28;1983;-54
2021/04/25 01:20:14;;;;;;;;;;;;;;;20.22;43.18;101305.69;5099039;28;838;-55
2021/04/25 01:22:39;;;;;;;;;;;;;;;20.25;43.30;101305.94;5081133;28;1313;-60
2021/04/25 01:25:05;;;;;;;;;;;;;;;20.31;42.91;101299.28;5098774;28;803;-57
2021/04/25 01:27:31;;;;;;;;;;;;;;;20.26;43.21;101296.53;5081167;28;767;-60
2021/04/25 01:29:56;;;;;;;;;;;;;;;19.74;44.21;101304.25;5098863;28;735;-55
2021/04/25 01:32:21;;;;;;;;;;;;;;;20.12;43.37;101310.16;5097871;28;1005;-60
2021/04/25 01:34:47;;;;;;;;;;;;;;;19.85;44.22;101312.50;5098238;28;727;-60
2021/04/25 01:37:12;;;;;;;;;;;;;;;19.96;44.00;101308.59;5098544;28;1910;-55
2021/04/25 01:39:38;;;;;;;;;;;;;;;20.01;43.61;101305.81;5098514;28;857;-59
2021/04/25 01:42:03;;;;;;;;;;;;;;;20.14;43.38;101315.38;5098715;28;755;-56
2021/04/25 01:44:29;;;;;;;;;;;;;;;20.04;43.40;101310.75;5098508;28;755;-58
2021/04/25 01:46:54;;;;;;;;;;;;;;;19.91;44.06;101316.88;5097879;28;1622;-56
2021/04/25 01:49:20;;;;;;;;;;;;;;;19.97;43.83;101311.06;5098643;28;835;-53
2021/04/25 01:51:45;;;;;;;;;;;;;;;19.94;43.75;101305.28;5098337;28;811;-59
2021/04/25 01:54:11;;;;;;;;;;;;;;;20.16;43.17;101302.13;5098254;28;743;-60
2021/04/25 01:56:36;;;;;;;;;;;;;;;20.16;43.10;101302.97;5098570;28;1910;-60
2021/04/25 01:59:02;;;;;;;;;;;;;;;20.23;43.18;101302.66;5098080;28;815;-54
2021/04/25 02:01:27;;;;;;;;;;;;;;;20.08;43.25;101298.03;5097681;28;954;-57
2021/04/25 02:03:53;;;;;;;;;;;;;;;20.12;43.52;101295.53;5098494;28;755;-57
2021/04/25 02:06:18;;;;;;;;;;;;;;;20.05;43.56;101295.84;5098266;28;763;-51
2021/04/25 02:08:44;;;;;;;;;;;;;;;19.94;43.66;101299.78;5098181;28;767;-54
2021/04/25 02:11:09;;;;;;;;;;;;;;;20.35;42.91;101294.00;5098109;28;799;-54
2021/04/25 02:13:35;;;;;;;;;;;;;;;20.11;43.17;101291.13;5077854;28;1253;-56
2021/04/25 02:16:00;;;;;;;;;;;;;;;20.21;42.99;101287.47;5077632;28;748;-54
2021/04/25 02:18:26;;;;;;;;;;;;;;;20.16;43.32;101286.38;5096368;28;1921;-58
2021/04/25 02:20:51;;;;;;;;;;;;;;;20.35;42.83;101292.03;5097741;28;759;-54
2021/04/25 02:23:16;;;;;;;;;;;;;;;20.16;43.07;101288.31;5097737;28;755;-54
2021/04/25 02:25:42;;;;;;;;;;;;;;;20.25;43.01;101288.56;5097803;28;775;-60
2021/04/25 02:28:07;;;;;;;;;;;;;;;20.28;42.97;101294.31;5098005;28;782;-58
2021/04/25 02:30:33;;;;;;;;;;;;;;;19.87;43.92;101289.03;5097705;28;811;-55
2021/04/25 02:32:59;;;;;;;;;;;;;;;20.01;43.48;101283.72;5097151;28;954;-59
2021/04/25 02:35:24;;;;;;;;;;;;;;;20.18;43.19;101289.69;5097467;28;755;-59
2021/04/25 02:37:50;;;;;;;;;;;;;;;19.99;43.45;101285.94;5097687;28;1917;-62
2021/04/25 02:40:17;;;;;;;;;;;;;;;20.08;43.22;101273.19;5097577;28;815;-60
2021/04/25 02:42:43;;;;;;;;;;;;;;;20.07;43.49;101274.28;5079209;28;545;-53
2021/04/25 02:45:14;;;;;;;;;;;;;;;20.16;43.20;101271.75;5097194;28;858;-52
2021/04/25 02:47:40;;;;;;;;;;;;;;;20.03;43.40;101270.44;5079571;28;1566;-51
2021/04/25 02:50:06;;;;;;;;;;;;;;;20.17;43.26;101270.63;5097233;28;771;-54
2021/04/25 02:52:31;;;;;;;;;;;;;;;20.07;43.26;101279.00;5097256;28;791;-52
2021/04/25 02:54:57;;;;;;;;;;;;;;;19.48;44.76;101271.22;5079388;28;1217;-60
2021/04/25 02:57:22;;;;;;;;;;;;;;;20.63;42.00;101275.00;5096811;28;1988;-61
2021/04/25 02:59:47;;;;;;;;;;;;;;;21.19;40.68;101273.69;5097182;28;740;-61
2021/04/25 03:02:13;;;;;;;;;;;;;;;20.72;41.74;101267.78;5096564;28;1002;-57
2021/04/25 03:04:38;;;;;;;;;;;;;;;20.42;42.41;101266.88;5096914;28;811;-53
2021/04/25 03:07:04;;;;;;;;;;;;;;;19.62;44.37;101276.97;5097314;28;759;-60
2021/04/25 03:09:29;;;;;;;;;;;;;;;19.70;44.38;101269.19;5096735;28;771;-54
2021/04/25 03:11:54;;;;;;;;;;;;;;;20.83;41.60;101266.56;5072790;28;1198;-52
2021/04/25 03:14:20;;;;;;;;;;;;;;;20.96;41.33;101269.78;5076706;28;1229;-57
2021/04/25 03:16:45;;;;;;;;;;;;;;;20.74;42.09;101268.31;5085942;28;1913;-62
2021/04/25 03:19:11;;;;;;;;;;;;;;;20.30;42.79;101269.16;5097397;28;893;-62
2021/04/25 03:21:36;;;;;;;;;;;;;;;19.28;44.92;101272.13;5096862;28;771;-61
2021/04/25 03:24:02;;;;;;;;;;;;;;;20.15;43.63;101270.94;5096824;28;755;-52
2021/04/25 03:26:28;;;;;;;;;;;;;;;21.16;40.92;101268.75;5097050;28;759;-52
2021/04/25 03:28:53;;;;;;;;;;;;;;;20.65;42.29;101281.06;5096635;28;786;-53
2021/04/25 03:31:19;;;;;;;;;;;;;;;20.71;41.81;101282.72;5096101;28;1018;-61
2021/04/25 03:33:44;;;;;;;;;;;;;;;19.72;43.94;101280.78;5078984;28;1184;-57
2021/04/25 03:36:09;;;;;;;;;;;;;;;19.51;44.39;101293.84;5096556;28;1987;-53
2021/04/25 03:38:35;;;;;;;;;;;;;;;20.38;43.07;101285.13;5096334;28;802;-60
2021/04/25 03:41:00;;;;;;;;;;;;;;;21.18;40.98;101289.47;5096857;28;738;-60
2021/04/25 03:43:26;;;;;;;;;;;;;;;20.73;42.09;101288.75;5097053;28;820;-59
2021/04/25 03:45:51;;;;;;;;;;;;;;;20.89;41.62;101288.63;5096180;28;1613;-61
2021/04/25 03:48:17;;;;;;;;;;;;;;;20.03;43.60;101292.53;5077685;28;1086;-62
2021/04/25 03:50:42;;;;;;;;;;;;;;;19.59;44.61;101299.59;5094969;28;1060;-60
2021/04/25 03:53:07;;;;;;;;;;;;;;;19.53;44.93;101294.38;5096174;28;806;-54
2021/04/25 03:55:33;;;;;;;;;;;;;;;20.98;41.63;101289.66;5088660;28;1358;-54
2021/04/25 03:57:58;;;;;;;;;;;;;;;20.95;41.49;101293.00;5079071;28;1906;-59
2021/04/25 04:00:24;;;;;;;;;;;;;;;20.84;41.51;101289.50;5095763;28;1223;-60
2021/04/25 04:02:49;;;;;;;;;;;;;;;20.33;42.83;101283.25;5085059;28;1540;-61
2021/04/25 04:05:15;;;;;;;;;;;;;;;19.75;44.11;101294.84;5088690;28;1231;-61
2021/04/25 04:07:40;;;;;;;;;;;;;;;19.46;44.76;101294.66;5088836;28;1286;-57
2021/04/25 04:10:06;;;;;;;;;;;;;;;20.65;42.46;101297.63;5080097;28;775;-60
2021/04/25 04:12:31;;;;;;;;;;;;;;;21.44;40.18;101294.69;5091014;28;1135;-60
2021/04/25 04:14:57;;;;;;;;;;;;;;;21.05;41.34;101301.19;5099945;28;1043;-60
2021/04/25 04:17:22;;;;;;;;;;;;;;;20.99;41.07;101299.59;5110593;28;1913;-58
2021/04/25 04:19:48;;;;;;;;;;;;;;;20.04;43.02;101310.75;5120535;28;834;-60
2021/04/25 04:22:13;;;;;;;;;;;;;;;19.37;44.91;101297.19;5120468;28;771;-56
2021/04/25 04:24:38;;;;;;;;;;;;;;;20.72;42.26;101295.41;5120572;28;767;-61
2021/04/25 04:27:04;;;;;;;;;;;;;;;21.12;40.92;101301.66;5104934;28;1561;-51
2021/04/25 04:29:29;;;;;;;;;;;;;;;21.13;41.21;101297.78;5079551;28;823;-60
2021/04/25 04:31:55;;;;;;;;;;;;;;;20.58;41.86;101308.19;5085478;28;947;-60
2021/04/25 04:34:20;;;;;;;;;;;;;;;20.08;43.07;101306.31;5099806;28;791;-61
2021/04/25 04:36:46;;;;;;;;;;;;;;;19.53;44.30;101311.78;5099694;28;1906;-58
2021/04/25 04:39:11;;;;;;;;;;;;;;;19.58;44.64;101310.91;5099748;28;831;-61
2021/04/25 04:41:37;;;;;;;;;;;;;;;21.03;41.51;101292.38;5099680;28;910;-61
2021/04/25 04:44:02;;;;;;;;;;;;;;;21.12;41.12;101304.44;5100468;28;700;-53
2021/04/25 04:46:28;;;;;;;;;;;;;;;21.27;40.72;101295.16;5080969;28;1575;-61
2021/04/25 04:48:53;;;;;;;;;;;;;;;20.47;42.47;101297.22;5099513;28;772;-55
2021/04/25 04:51:19;;;;;;;;;;;;;;;19.72;44.06;101300.94;5099486;28;820;-51
2021/04/25 04:53:44;;;;;;;;;;;;;;;19.43;44.58;101303.50;5099791;28;843;-54
2021/04/25 04:56:09;;;;;;;;;;;;;;;20.76;41.95;101293.72;5099368;28;775;-60
2021/04/25 04:58:35;;;;;;;;;;;;;;;21.37;40.46;101289.50;5099255;28;1918;-50
2021/04/25 05:01:00;;;;;;;;;;;;;;;21.17;40.91;101287.81;5100016;28;729;-52
2021/04/25 05:03:26;;;;;;;;;;;;;;;21.11;40.87;101288.97;5098990;28;994;-59
2021/04/25 05:05:51;;;;;;;;;;;;;;;20.07;42.65;101285.31;5081334;28;767;-61
2021/04/25 05:08:17;;;;;;;;;;;;;;;19.28;44.92;101285.09;5099086;28;787;-60
2021/04/25 05:10:42;;;;;;;;;;;;;;;20.66;42.33;101277.19;5099335;28;799;-60
2021/04/25 05:13:08;;;;;;;;;;;;;;;21.30;40.64;101279.94;5083205;28;1196;-58
2021/04/25 05:15:35;;;;;;;;;;;;;;;21.02;41.29;101280.47;5078903;28;748;-62
2021/04/25 05:18:00;;;;;;;;;;;;;;;20.87;41.54;101274.28;5093546;28;1973;-61
2021/04/25 05:20:25;;;;;;;;;;;;;;;19.75;43.16;101272.75;5099317;28;827;-60
2021/04/25 05:22:51;;;;;;;;;;;;;;;19.45;45.21;101274.53;5099024;28;802;-60
2021/04/25 05:25:16;;;;;;;;;;;;;;;20.94;41.69;101269.22;5098735;28;795;-60
2021/04/25 05:27:42;;;;;;;;;;;;;;;21.12;41.07;101274.00;5098854;28;778;-61
2021/04/25 05:30:07;;;;;;;;;;;;;;;21.09;41.12;101273.78;5098882;28;527;-56
2021/04/25 05:32:33;;;;;;;;;;;;;;;20.59;42.01;101273.94;5098229;28;958;-53
2021/04/25 05:34:58;;;;;;;;;;;;;;;19.56;43.72;101280.88;5099295;28;806;-60
2021/04/25 05:37:24;;;;;;;;;;;;;;;20.12;43.61;101274.25;5098479;28;1917;-60
2021/04/25 05:39:49;;;;;;;;;;;;;;;21.28;40.98;101271.94;5098921;28;774;-59
2021/04/25 05:42:15;;;;;;;;;;;;;;;21.03;41.37;101278.56;5098670;28;798;-59
2021/04/25 05:44:40;;;;;;;;;;;;;;;21.14;41.06;101279.25;5098423;28;835;-60
2021/04/25 05:47:06;;;;;;;;;;;;;;;20.16;43.01;101277.25;5097907;28;1657;-60
2021/04/25 05:49:31;;;;;;;;;;;;;;;19.39;45.05;101283.94;5098529;28;850;-60
2021/04/25 05:51:57;;;;;;;;;;;;;;;19.94;44.05;101285.97;5098711;28;807;-60
2021/04/25 05:54:22;;;;;;;;;;;;;;;21.18;41.08;101278.41;5098509;28;759;-60
2021/04/25 05:56:48;;;;;;;;;;;;;;;20.92;41.51;101277.00;5098309;28;1913;-60
2021/04/25 05:59:13;;;;;;;;;;;;;;;21.05;41.27;101270.78;5098066;28;799;-54
2021/04/25 06:01:39;;;;;;;;;;;;;;;20.15;42.68;101279.22;5097782;28;954;-49
2021/04/25 06:04:05;;;;;;;;;;;;;;;19.54;44.42;101283.06;5098301;28;806;-59
2021/04/25 06:06:31;;;;;;;;;;;;;;;19.56;44.71;101278.09;5098074;28;869;-60
2021/04/25 06:08:56;;;;;;;;;;;;;;;19.72;44.10;101276.09;5097875;28;719;-59
2021/04/25 06:11:21;;;;;;;;;;;;;;;19.88;43.66;101281.56;5096780;28;1150;-59
2021/04/25 06:13:47;;;;;;;;;;;;;;;20.12;43.26;101279.78;5077525;28;1178;-60
2021/04/25 06:16:12;;;;;;;;;;;;;;;20.30;42.54;101286.56;5078012;28;971;-60
2021/04/25 06:18:38;;;;;;;;;;;;;;;20.27;42.61;101292.69;5118040;28;1914;-60
2021/04/25 06:21:03;;;;;;;;;;;;;;;20.43;42.47;101296.16;5117834;28;826;-53
2021/04/25 06:23:29;;;;;;;;;;;;;;;20.72;41.61;101287.13;5118198;28;862;-60
2021/04/25 06:25:55;;;;;;;;;;;;;;;20.85;41.47;101280.91;5118193;28;791;-59
2021/04/25 06:28:21;;;;;;;;;;;;;;;21.02;41.18;101286.00;5118477;28;805;-59
2021/04/25 06:30:46;;;;;;;;;;;;;;;20.96;41.12;101291.91;5118391;28;819;-59
2021/04/25 06:33:13;;;;;;;;;;;;;;;20.97;41.19;101293.53;5117619;28;945;-59
2021/04/25 06:35:39;;;;;;;;;;;;;;;21.10;40.83;101292.84;5117945;28;790;-61
2021/04/25 06:38:04;;;;;;;;;;;;;;;21.09;40.99;101302.25;5118198;28;1984;-58
2021/04/25 06:40:30;;;;;;;;;;;;;;;21.17;40.72;101298.88;5117950;28;755;-60
2021/04/25 06:42:55;;;;;;;;;;;;;;;21.17;40.60;101298.88;5118004;28;751;-60
2021/04/25 06:45:21;;;;;;;;;;;;;;;21.20;40.62;101295.50;5099851;28;1618;-54
2021/04/25 06:47:47;;;;;;;;;;;;;;;21.24;40.53;101292.16;5096767;28;1650;-63
2021/04/25 06:50:14;;;;;;;;;;;;;;;21.25;40.53;101300.19;5078447;28;793;-48
2021/04/25 06:52:43;;;;;;;;;;;;;;;21.24;40.55;101305.97;5078568;28;858;-59
2021/04/25 06:55:09;;;;;;;;;;;;;;;21.43;39.98;101301.34;5097300;28;774;-56
2021/04/25 06:57:34;;;;;;;;;;;;;;;21.40;40.07;101313.00;5096800;28;1914;-59
2021/04/25 07:00:00;;;;;;;;;;;;;;;21.46;40.11;101311.84;5097226;28;835;-53
2021/04/25 07:02:25;;;;;;;;;;;;;;;21.48;39.96;101315.13;5096605;28;1010;-60
2021/04/25 07:04:51;;;;;;;;;;;;;;;21.61;39.83;101307.28;5096930;28;822;-58
2021/04/25 07:07:16;;;;;;;;;;;;;;;21.65;39.60;101311.09;5097212;28;889;-60
2021/04/25 07:09:42;;;;;;;;;;;;;;;21.66;39.63;101310.00;5097272;28;773;-61
2021/04/25 07:12:07;;;;;;;;;;;;;;;21.53;39.82;101301.28;5089216;28;1114;-60
2021/04/25 07:14:33;;;;;;;;;;;;;;;21.58;39.77;101308.69;5076571;28;1182;-57
2021/04/25 07:16:58;;;;;;;;;;;;;;;21.63;39.51;101299.50;5071100;28;1974;-60
2021/04/25 07:19:24;;;;;;;;;;;;;;;21.29;40.52;101309.50;5117289;28;807;-58
2021/04/25 07:21:49;;;;;;;;;;;;;;;21.49;40.21;101305.72;5117132;28;802;-60
2021/04/25 07:24:15;;;;;;;;;;;;;;;21.53;39.82;101305.97;5117188;28;862;-60
2021/04/25 07:26:40;;;;;;;;;;;;;;;21.72;39.65;101305.22;5116827;28;774;-55
2021/04/25 07:29:05;;;;;;;;;;;;;;;21.82;39.33;101303.13;5117057;28;821;-55
2021/04/25 07:31:31;;;;;;;;;;;;;;;21.75;39.46;101299.09;5116052;28;994;-60
2021/04/25 07:33:58;;;;;;;;;;;;;;;21.81;39.40;101303.41;5116731;28;882;-60
2021/04/25 07:36:24;;;;;;;;;;;;;;;21.85;39.29;101304.47;5116892;28;1965;-56
2021/04/25 07:38:49;;;;;;;;;;;;;;;22.02;38.91;101298.44;5116919;28;819;-60
2021/04/25 07:41:15;;;;;;;;;;;;;;;22.14;38.66;101298.00;5116696;28;786;-59
2021/04/25 07:43:41;;;;;;;;;;;;;;;21.68;39.66;101296.66;5117003;28;783;-57
2021/04/25 07:46:06;;;;;;;;;;;;;;;21.25;40.72;101291.03;5111600;28;1629;-60
2021/04/25 07:48:32;;;;;;;;;;;;;;;21.17;40.63;101293.34;5096117;28;997;-60
2021/04/25 07:50:57;;;;;;;;;;;;;;;21.26;40.83;101287.97;5096412;28;751;-60
2021/04/25 07:53:22;;;;;;;;;;;;;;;21.57;39.87;101284.06;5096265;28;843;-60
2021/04/25 07:55:48;;;;;;;;;;;;;;;21.76;39.62;101284.94;5096542;28;810;-60
2021/04/25 07:58:13;;;;;;;;;;;;;;;21.86;39.37;101281.22;5096562;28;1974;-60
2021/04/25 08:00:39;;;;;;;;;;;;;;;21.75;39.63;101274.97;5096532;28;787;-60
2021/04/25 08:03:05;;;;;;;;;;;;;;;22.02;38.94;101271.59;5095780;28;998;-59
2021/04/25 08:05:30;;;;;;;;;;;;;;;22.03;38.90;101269.63;5096295;28;783;-51
2021/04/25 08:07:55;;;;;;;;;;;;;;;21.99;39.02;101274.13;5096085;28;834;-60
2021/04/25 08:10:21;;;;;;;;;;;;;;;21.44;40.40;101268.97;5096240;28;783;-60
2021/04/25 08:12:46;;;;;;;;;;;;;;;21.20;40.91;101273.38;5083570;28;1183;-60
2021/04/25 08:15:12;;;;;;;;;;;;;;;20.61;42.03;101272.53;5075669;28;1020;-60
2021/04/25 08:17:37;;;;;;;;;;;;;;;21.28;40.72;101268.31;5087808;28;1910;-60
2021/04/25 08:20:03;;;;;;;;;;;;;;;21.46;40.21;101273.09;5096320;28;826;-55
2021/04/25 08:22:29;;;;;;;;;;;;;;;21.56;39.84;101276.88;5096529;28;747;-61
2021/04/25 08:24:54;;;;;;;;;;;;;;;21.82;39.31;101263.56;5096147;28;823;-59
2021/04/25 08:27:20;;;;;;;;;;;;;;;21.98;38.99;101266.91;5096128;28;756;-53
2021/04/25 08:29:45;;;;;;;;;;;;;;;21.98;39.15;101262.22;5095888;28;787;-59
2021/04/25 08:32:10;;;;;;;;;;;;;;;21.98;39.01;101261.38;5095514;28;954;-60
2021/04/25 08:34:36;;;;;;;;;;;;;;;22.09;38.95;101265.69;5096015;28;854;-59
2021/04/25 08:37:01;;;;;;;;;;;;;;;22.16;38.63;101262.50;5095635;28;1917;-59
2021/04/25 08:39:27;;;;;;;;;;;;;;;21.24;40.67;101248.75;5096067;28;839;-61
2021/04/25 08:41:54;;;;;;;;;;;;;;;21.23;40.84;101249.03;5077621;28;816;-60
2021/04/25 08:44:19;;;;;;;;;;;;;;;21.04;41.12;101247.00;5081742;28;756;-60
2021/04/25 08:46:48;;;;;;;;;;;;;;;21.25;40.53;101242.09;5099283;28;1597;-60
2021/04/25 08:49:17;;;;;;;;;;;;;;;21.69;39.78;101243.78;5100227;28;776;-56
2021/04/25 08:51:42;;;;;;;;;;;;;;;21.83;39.16;101238.34;5099406;28;803;-53
2021/04/25 08:54:08;;;;;;;;;;;;;;;21.83;39.32;101243.88;5099660;28;847;-60
2021/04/25 08:56:33;;;;;;;;;;;;;;;22.05;38.86;101239.69;5099786;28;1976;-53
2021/04/25 08:58:59;;;;;;;;;;;;;;;22.12;38.88;101234.59;5099510;28;745;-53
2021/04/25 09:01:24;;;;;;;;;;;;;;;21.74;39.54;101234.59;5099033;28;961;-58
2021/04/25 09:03:49;;;;;;;;;;;;;;;21.33;40.16;101224.81;5099724;28;862;-53
2021/04/25 09:06:15;;;;;;;;;;;;;;;20.91;41.43;101228.34;5099094;28;815;-54
2021/04/25 09:08:44;;;;;;;;;;;;;;;21.19;40.87;101233.00;5093698;28;1381;-47
2021/04/25 09:11:27;;;;;;;;;;;;;;;21.59;39.66;101232.84;5079112;28;778;-47
2021/04/25 09:14:12;;;;;;;;;;;;;;;21.74;39.67;101222.69;5078542;28;1004;-56
2021/04/25 09:16:37;;;;;;;;;;;;;;;21.81;39.15;101223.13;5082046;28;1934;-50
2021/04/25 09:19:03;;;;;;;;;;;;;;;21.97;38.84;101229.28;5098856;28;926;-55
2021/04/25 09:21:28;;;;;;;;;;;;;;;21.56;39.78;101221.53;5081107;28;751;-48
2021/04/25 09:23:53;;;;;;;;;;;;;;;21.81;39.22;101206.53;5099115;28;771;-53
2021/04/25 09:26:19;;;;;;;;;;;;;;;21.95;38.88;101223.22;5099133;28;843;-52
2021/04/25 09:29:02;;;;;;;;;;;;;;;21.92;39.15;101226.59;5098808;28;762;-50
2021/04/25 09:31:28;;;;;;;;;;;;;;;22.21;38.57;101227.25;5098474;28;966;-48
2021/04/25 09:33:57;;;;;;;;;;;;;;;21.39;40.22;101217.28;5098792;28;743;-49
2021/04/25 09:36:24;;;;;;;;;;;;;;;21.44;40.18;101220.00;5064106;28;1976;-48
2021/04/25 09:38:50;;;;;;;;;;;;;;;21.17;40.75;101221.44;5098941;28;813;-51
2021/04/25 09:41:27;;;;;;;;;;;;;;;21.46;40.24;101220.53;5098694;28;842;-51
2021/04/25 09:43:53;;;;;;;;;;;;;;;21.78;39.24;101219.03;5099236;28;763;-55
2021/04/25 09:46:18;;;;;;;;;;;;;;;21.84;39.31;101212.31;5098167;28;1566;-49
2021/04/25 09:48:44;;;;;;;;;;;;;;;22.07;38.77;101217.25;5098274;28;971;-49
2021/04/25 09:51:14;;;;;;;;;;;;;;;22.08;38.82;101214.16;5098607;28;799;-49
2021/04/25 09:53:40;;;;;;;;;;;;;;;22.00;38.91;101217.63;5097959;28;779;-47
2021/04/25 09:56:06;;;;;;;;;;;;;;;21.23;40.55;101218.63;5098148;28;851;-50
2021/04/25 09:58:32;;;;;;;;;;;;;;;20.82;41.69;101215.16;5098194;28;1917;-53
2021/04/25 10:00:57;;;;;;;;;;;;;;;20.99;41.34;101208.38;5098575;28;755;-53
2021/04/25 10:03:23;;;;;;;;;;;;;;;21.49;39.95;101199.72;5079543;28;1121;-48
2021/04/25 10:06:00;;;;;;;;;;;;;;;21.65;39.80;101198.44;5080472;28;782;-51
2021/04/25 10:08:26;;;;;;;;;;;;;;;21.71;39.52;101207.50;5098240;28;810;-49
2021/04/25 10:10:52;;;;;;;;;;;;;;;21.74;39.29;101206.94;5097974;28;808;-48
2021/04/25 10:13:17;;;;;;;;;;;;;;;22.05;38.72;101214.78;5080495;28;1202;-49
2021/04/25 10:15:43;;;;;;;;;;;;;;;22.22;38.32;101214.25;5077625;28;791;-51
2021/04/25 10:18:08;;;;;;;;;;;;;;;21.60;39.63;101214.28;5093698;28;2005;-55
2021/04/25 10:20:33;;;;;;;;;;;;;;;21.39;40.36;101205.41;5098060;28;818;-58
2021/04/25 10:23:02;;;;;;;;;;;;;;;20.42;42.54;101211.63;5079278;28;803;-59
2021/04/25 10:25:32;;;;;;;;;;;;;;;21.24;40.76;101209.19;5097869;28;751;-57
2021/04/25 10:27:58;;;;;;;;;;;;;;;21.70;39.47;101203.09;5098025;28;767;-54
2021/04/25 10:30:28;;;;;;;;;;;;;;;21.83;39.29;101209.84;5097814;28;843;-55
2021/04/25 10:32:55;;;;;;;;;;;;;;;21.88;39.05;101213.34;5097227;28;997;-59
2021/04/25 10:35:21;;;;;;;;;;;;;;;21.97;38.90;101199.66;5097720;28;759;-50
2021/04/25 10:37:46;;;;;;;;;;;;;;;22.07;38.73;101201.44;5097216;28;1988;-55
2021/04/25 10:40:18;;;;;;;;;;;;;;;22.06;38.97;101205.31;5097856;28;815;-59
2021/04/25 10:42:53;;;;;;;;;;;;;;;22.00;38.83;101198.22;5097826;28;791;-52
2021/04/25 10:45:25;;;;;;;;;;;;;;;22.14;38.49;101199.09;5097367;28;755;-52
2021/04/25 10:48:10;;;;;;;;;;;;;;;22.16;38.68;101202.41;5096817;28;1733;-56
2021/04/25 10:50:39;;;;;;;;;;;;;;;21.85;39.24;101202.88;5079599;28;1399;-54
2021/04/25 10:53:17;;;;;;;;;;;;;;;21.25;40.67;101205.31;5097189;28;787;-50
2021/04/25 10:55:45;;;;;;;;;;;;;;;20.72;41.60;101201.47;5097651;28;913;-56
2021/04/25 10:58:10;;;;;;;;;;;;;;;21.06;41.14;101196.97;5097011;28;1961;-56
2021/04/25 11:03:10;;;;;;;;;;;;;;;21.80;39.34;101194.66;5096852;28;1060;-51
2021/04/25 11:05:36;;;;;;;;;;;;;;;21.94;39.13;101193.91;5096856;28;827;-55
2021/04/25 11:08:02;;;;;;;;;;;;;;;22.10;38.59;101191.72;5096904;28;798;-57
2021/04/25 11:10:47;;;;;;;;;;;;;;;22.07;38.63;101184.81;5097029;28;735;-54
2021/04/25 11:13:31;;;;;;;;;;;;;;;22.10;38.83;101180.63;5096581;28;1182;-60
2021/04/25 11:15:58;;;;;;;;;;;;;;;22.11;38.79;101180.34;5096931;28;838;-59
2021/04/25 11:18:40;;;;;;;;;;;;;;;22.03;38.92;101181.84;5115072;28;1985;-51
2021/04/25 11:21:24;;;;;;;;;;;;;;;21.24;40.58;101176.00;5098643;28;1109;-56
2021/04/25 11:23:50;;;;;;;;;;;;;;;21.05;40.96;101179.53;5117270;28;755;-61
2021/04/25 11:26:37;;;;;;;;;;;;;;;21.02;41.35;101171.84;5117322;28;814;-57
2021/04/25 11:29:03;;;;;;;;;;;;;;;21.57;39.98;101181.69;5116965;28;886;-54
2021/04/25 11:31:46;;;;;;;;;;;;;;;21.94;39.01;101188.38;5116675;28;953;-57
2021/04/25 11:34:31;;;;;;;;;;;;;;;22.03;39.25;101172.69;5116780;28;875;-54
2021/04/25 11:36:57;;;;;;;;;;;;;;;22.12;38.66;101170.91;5116786;28;1906;-61
2021/04/25 11:39:26;;;;;;;;;;;;;;;21.92;39.19;101165.69;5117311;28;763;-60
2021/04/25 11:41:52;;;;;;;;;;;;;;;21.34;40.57;101164.81;5098547;28;744;-58
2021/04/25 11:44:27;;;;;;;;;;;;;;;21.08;40.97;101167.88;5116865;28;751;-60
2021/04/25 11:46:53;;;;;;;;;;;;;;;21.29;40.71;101170.41;5104419;28;1589;-57
2021/04/25 11:49:28;;;;;;;;;;;;;;;21.70;39.87;101161.59;5096366;28;812;-57
2021/04/25 11:52:10;;;;;;;;;;;;;;;21.99;39.22;101158.66;5096531;28;770;-57
2021/04/25 11:54:35;;;;;;;;;;;;;;;22.09;38.75;101157.66;5096514;28;783;-59
2021/04/25 11:57:07;;;;;;;;;;;;;;;22.01;38.94;101163.88;5096559;28;1970;-52
2021/04/25 11:59:32;;;;;;;;;;;;;;;22.17;38.60;101153.38;5096442;28;803;-59
2021/04/25 12:02:07;;;;;;;;;;;;;;;22.10;38.78;101150.16;5095766;28;1021;-55
2021/04/25 12:05:02;;;;;;;;;;;;;;;21.73;39.58;101149.91;5096845;28;815;-58
2021/04/25 12:07:38;;;;;;;;;;;;;;;21.29;40.65;101139.97;5078458;28;1699;-60
2021/04/25 12:10:10;;;;;;;;;;;;;;;20.72;42.00;101143.44;5096186;28;791;-59
2021/04/25 12:12:36;;;;;;;;;;;;;;;21.40;40.38;101140.66;5084701;28;1139;-59
2021/04/25 12:15:03;;;;;;;;;;;;;;;21.78;39.55;101141.50;5075802;28;1071;-60
2021/04/25 12:17:30;;;;;;;;;;;;;;;22.08;39.02;101144.09;5087238;28;1922;-59
2021/04/25 12:19:55;;;;;;;;;;;;;;;22.16;38.73;101133.19;5100847;28;800;-59
2021/04/25 12:22:21;;;;;;;;;;;;;;;22.05;38.82;101129.75;5100312;28;755;-60
2021/04/25 12:24:46;;;;;;;;;;;;;;;22.13;38.87;101131.03;5100206;28;772;-60
2021/04/25 12:27:12;;;;;;;;;;;;;;;21.49;40.28;101123.09;5081666;28;874;-61
2021/04/25 12:29:37;;;;;;;;;;;;;;;21.32;40.70;101125.53;5100258;28;807;-60
2021/04/25 12:32:03;;;;;;;;;;;;;;;21.18;40.82;101115.22;5088434;28;975;-54
2021/04/25 12:34:29;;;;;;;;;;;;;;;21.38;40.61;101107.78;5120361;28;802;-57
2021/04/25 12:36:55;;;;;;;;;;;;;;;21.68;39.85;101108.47;5101673;28;2039;-60
2021/04/25 12:39:20;;;;;;;;;;;;;;;21.86;39.54;101115.09;5120363;28;783;-54
2021/04/25 12:41:46;;;;;;;;;;;;;;;21.90;39.51;101109.81;5120179;28;735;-54
2021/04/25 12:44:12;;;;;;;;;;;;;;;22.00;39.04;101109.63;5120509;28;775;-56
2021/04/25 12:46:38;;;;;;;;;;;;;;;22.11;38.82;101100.00;5110247;28;1581;-58
2021/04/25 12:49:03;;;;;;;;;;;;;;;21.92;39.24;101102.81;5099551;28;900;-58
2021/04/25 12:51:29;;;;;;;;;;;;;;;21.15;40.69;101102.00;5099668;28;835;-55